Nowata, Oklahoma
Current Conditions -  °F | °C
As of 3:53 PM on Friday 31 Oct 2014 (Local Time) from KBVO Reporting Station
Clear Clear  
Wind Chill: 51°   Ceiling: Unl
Heat Index: 51°   Visibility: 10mi
Dew Point: 23°   Wind: 13mph
Humidity: 33%   Direction: 10°N
Pressure: 30.42"   Gusts: 22mph
Location:  36.7°N, 95.64°W
Report Text: KBVO 312053Z AUTO 01011G19KT 10SM CLR 11/M05 A3042 RMK AO2 SLP299 T01061050 56016
Loading
Personal Weather Stations






























Interactive Weather Map New forecast layout! Learn more

10-Day Weather Forecast

Advertisements
Track Severe Weather on mobile